Time;durP1;ratioP1;P1;durP2;ratioP2;P2;SDS_P1;SDS_P2;PMS_P1;PMS_P2;Temp;Humidity;BMP_temperature;BMP_pressure;BME280_temperature;BME280_humidity;BME280_pressure;Samples;Min_cycle;Max_cycle;Signal;HPM_P1;HPM_P2
2023/07/18 00:00:42;;;;;;;0.10;0.10;;;;;;;;;;5049552;28;20065;-84
2023/07/18 00:03:08;;;;;;;0.10;0.10;;;;;;;;;;5034959;28;20288;-84
2023/07/18 00:05:35;;;;;;;0.10;0.10;;;;;;;18.56;nan;100916.19;5043946;28;20372;-84
2023/07/18 00:08:00;;;;;;;0.10;0.10;;;;;;;;;;5058427;28;20033;-84
2023/07/18 00:10:26;;;;;;;0.10;0.10;;;;;;;;;;5061927;28;21167;-84
2023/07/18 00:12:51;;;;;;;0.10;0.10;;;;;;;;;;5045840;28;20057;-84
2023/07/18 00:15:16;;;;;;;0.10;0.10;;;;;;;18.37;nan;100906.97;5059719;28;20079;-83
2023/07/18 00:17:42;;;;;;;0.10;0.10;;;;;;;;;;5057288;28;20072;-83
2023/07/18 00:20:12;;;;;;;0.10;0.10;;;;;;;18.19;nan;100934.22;5052520;28;20051;-84
2023/07/18 00:22:38;;;;;;;0.10;0.10;;;;;;;18.12;nan;100869.09;5041199;28;20037;-84
2023/07/18 00:25:04;;;;;;;0.10;0.10;;;;;;;;;;5051230;28;20038;-84
2023/07/18 00:27:29;;;;;;;0.10;0.10;;;;;;;;;;5057271;28;20090;-84
2023/07/18 00:29:57;;;;;;;0.10;0.10;;;;;;;;;;5056289;28;20059;-84
2023/07/18 00:32:23;;;;;;;0.10;0.10;;;;;;;;;;5053663;28;22866;-84
2023/07/18 00:34:49;;;;;;;0.10;0.10;;;;;;;18.30;nan;100920.28;5062980;28;20043;-84
2023/07/18 00:37:14;;;;;;;0.10;0.10;;;;;;;;;;5052796;28;20045;-85
2023/07/18 00:39:40;;;;;;;0.10;0.10;;;;;;;18.37;nan;100936.41;5055603;28;20051;-84
2023/07/18 00:42:05;;;;;;;0.10;0.10;;;;;;;;;;5060995;28;20037;-84
2023/07/18 00:44:30;;;;;;;0.10;0.10;;;;;;;;;;5055826;28;20275;-84
2023/07/18 00:46:56;;;;;;;0.10;0.10;;;;;;;;;;5055639;28;20037;-84
2023/07/18 00:49:22;;;;;;;0.10;0.10;;;;;;;18.27;nan;100877.03;5054626;28;20033;-84
2023/07/18 00:51:47;;;;;;;0.10;0.10;;;;;;;;;;5053077;28;20049;-84
2023/07/18 00:54:13;;;;;;;0.10;0.10;;;;;;;;;;5045435;28;20064;-84
2023/07/18 00:56:38;;;;;;;0.00;0.00;;;;;;;;;;5057474;28;20040;-84
2023/07/18 00:59:05;;;;;;;0.10;0.10;;;;;;;17.85;nan;100919.66;5061727;28;20068;-84
2023/07/18 01:01:30;;;;;;;0.10;0.10;;;;;;;17.73;nan;100913.97;5057358;28;20033;-84
2023/07/18 01:03:55;;;;;;;0.10;0.10;;;;;;;;;;5048882;28;20057;-84
2023/07/18 01:06:23;;;;;;;0.10;0.10;;;;;;;17.68;nan;100894.13;5057403;28;20040;-84
2023/07/18 01:08:48;;;;;;;0.10;0.10;;;;;;;;;;5055270;28;20042;-84
2023/07/18 01:11:13;;;;;;;0.10;0.10;;;;;;;;;;5056164;28;20618;-84
2023/07/18 01:13:38;;;;;;;0.10;0.10;;;;;;;17.93;nan;100916.06;5054533;28;20494;-85
2023/07/18 01:16:04;;;;;;;0.10;0.10;;;;;;;17.99;nan;100999.03;5055185;28;20029;-85
2023/07/18 01:18:29;;;;;;;0.10;0.10;;;;;;;;;;5044540;28;20037;-85
2023/07/18 01:20:55;;;;;;;0.10;0.10;;;;;;;17.98;nan;100925.16;5046966;28;20499;-84
2023/07/18 01:23:21;;;;;;;0.10;0.10;;;;;;;;;;5045775;28;20962;-83
2023/07/18 01:25:46;;;;;;;0.10;0.10;;;;;;;17.82;nan;100912.03;5045309;28;20036;-84
2023/07/18 01:28:12;;;;;;;0.10;0.10;;;;;;;;;;5037326;28;20048;-83
2023/07/18 01:30:37;;;;;;;0.10;0.10;;;;;;;;;;5050309;28;20029;-83
2023/07/18 01:33:02;;;;;;;0.10;0.10;;;;;;;;;;5047838;28;20341;-84
2023/07/18 01:35:28;;;;;;;0.10;0.10;;;;;;;17.67;nan;100897.84;5037153;28;20438;-84
2023/07/18 01:37:54;;;;;;;0.10;0.10;;;;;;;17.70;nan;100903.63;5034044;28;20160;-84
2023/07/18 01:40:21;;;;;;;0.10;0.10;;;;;;;;;;5053176;28;20047;-84
2023/07/18 01:42:52;;;;;;;0.10;0.10;;;;;;;;;;5047505;28;20037;-84
2023/07/18 01:45:19;;;;;;;0.10;0.10;;;;;;;;;;5053929;28;20509;-83
2023/07/18 01:47:45;;;;;;;0.10;0.10;;;;;;;17.67;nan;100884.47;5048283;28;20604;-85
2023/07/18 01:50:11;;;;;;;0.10;0.10;;;;;;;;;;5032279;28;20037;-84
2023/07/18 01:52:37;;;;;;;0.13;0.13;;;;;;;17.69;nan;100890.47;5038654;28;20032;-84
2023/07/18 01:55:03;;;;;;;0.10;0.10;;;;;;;;;;5040026;28;20420;-83
2023/07/18 01:57:29;;;;;;;0.10;0.10;;;;;;;;;;5048798;28;20033;-84
2023/07/18 01:59:55;;;;;;;0.10;0.10;;;;;;;17.83;nan;101015.34;5039448;28;20577;-84
2023/07/18 02:02:21;;;;;;;0.10;0.10;;;;;;;17.84;nan;100819.03;5049548;28;20076;-85
2023/07/18 02:04:46;;;;;;;0.10;0.10;;;;;;;17.80;nan;100871.22;5047678;28;20029;-83
2023/07/18 02:07:11;;;;;;;0.10;0.10;;;;;;;;;;5045765;28;20086;-84
2023/07/18 02:09:36;;;;;;;0.10;0.10;;;;;;;17.74;nan;100942.38;5048423;28;20029;-83
2023/07/18 02:12:02;;;;;;;0.10;0.10;;;;;;;;;;5040351;28;20038;-84
2023/07/18 02:14:27;;;;;;;0.10;0.10;;;;;;;;;;5042757;28;20052;-83
2023/07/18 02:16:53;;;;;;;0.10;0.10;;;;;;;;;;5048654;28;20052;-83
2023/07/18 02:19:18;;;;;;;0.10;0.10;;;;;;;;;;5046477;28;20060;-84
2023/07/18 02:21:43;;;;;;;0.10;0.10;;;;;;;;;;5041799;28;20033;-83
2023/07/18 02:24:08;;;;;;;0.10;0.10;;;;;;;;;;5034257;28;20083;-84
2023/07/18 02:26:34;;;;;;;0.10;0.10;;;;;;;17.51;nan;100979.94;5047870;28;20625;-85
2023/07/18 02:28:59;;;;;;;0.10;0.10;;;;;;;;;;5040264;28;20030;-84
2023/07/18 02:31:24;;;;;;;0.10;0.10;;;;;;;17.51;nan;100910.41;5049627;28;20034;-84
2023/07/18 02:33:49;;;;;;;0.10;0.10;;;;;;;;;;5053676;28;20214;-86
2023/07/18 02:36:14;;;;;;;0.10;0.10;;;;;;;17.50;nan;100871.34;5059891;28;20025;-86
2023/07/18 02:38:40;;;;;;;0.10;0.10;;;;;;;;;;5052400;28;20041;-86
2023/07/18 02:41:05;;;;;;;0.10;0.10;;;;;;;17.45;nan;100852.38;5052668;28;20045;-85
2023/07/18 02:43:30;;;;;;;0.10;0.10;;;;;;;;;;5048170;28;20041;-86
2023/07/18 02:45:56;;;;;;;0.10;0.10;;;;;;;;;;5053287;28;20152;-86
2023/07/18 02:48:21;;;;;;;0.10;0.10;;;;;;;;;;5055738;28;20033;-87
2023/07/18 02:50:47;;;;;;;0.10;0.10;;;;;;;;;;5049613;28;20089;-86
2023/07/18 02:53:13;;;;;;;0.10;0.10;;;;;;;17.38;nan;100883.53;5046012;28;20364;-85
2023/07/18 02:55:38;;;;;;;0.10;0.10;;;;;;;;;;5044827;28;20040;-84
2023/07/18 02:58:03;;;;;;;0.10;0.10;;;;;;;;;;5047867;28;20045;-86
2023/07/18 03:00:29;;;;;;;0.10;0.10;;;;;;;17.45;nan;100872.91;5049371;28;20033;-85
2023/07/18 03:02:55;;;;;;;0.10;0.10;;;;;;;;;;5042392;28;20033;-85
2023/07/18 03:05:22;;;;;;;0.10;0.10;;;;;;;;;;5045766;28;20051;-85
2023/07/18 03:07:47;;;;;;;0.10;0.10;;;;;;;;;;5051675;28;20030;-84
2023/07/18 03:10:13;;;;;;;0.10;0.10;;;;;;;;;;5052577;28;20060;-85
2023/07/18 03:12:40;;;;;;;0.10;0.10;;;;;;;17.26;nan;100917.94;5042758;28;20067;-86
2023/07/18 03:15:06;;;;;;;0.10;0.10;;;;;;;;;;5060117;28;20045;-85
2023/07/18 03:17:31;;;;;;;0.10;0.10;;;;;;;;;;5065906;28;20053;-86
2023/07/18 03:19:56;;;;;;;0.10;0.10;;;;;;;;;;5045707;28;20037;-86
2023/07/18 03:22:21;;;;;;;0.10;0.10;;;;;;;;;;5046311;28;20052;-86
2023/07/18 03:24:47;;;;;;;0.10;0.10;;;;;;;;;;5049001;28;20065;-85
2023/07/18 03:27:13;;;;;;;0.10;0.10;;;;;;;;;;5048086;28;20296;-86
2023/07/18 03:29:38;;;;;;;0.10;0.10;;;;;;;;;;5045670;28;20089;-85
2023/07/18 03:32:03;;;;;;;0.10;0.10;;;;;;;;;;5060434;28;20559;-87
2023/07/18 03:34:29;;;;;;;0.10;0.10;;;;;;;;;;5059106;28;20293;-86
2023/07/18 03:36:54;;;;;;;0.10;0.10;;;;;;;16.75;nan;100889.25;5044082;28;20492;-86
2023/07/18 03:39:19;;;;;;;0.10;0.10;;;;;;;16.67;nan;100993.47;5047360;28;20044;-84
2023/07/18 03:41:45;;;;;;;0.10;0.10;;;;;;;16.70;nan;101014.47;5050114;28;20033;-85
2023/07/18 03:44:10;;;;;;;0.10;0.10;;;;;;;16.75;nan;100893.75;5043367;28;20037;-85
2023/07/18 03:46:35;;;;;;;0.10;0.10;;;;;;;;;;5044793;28;20354;-85
2023/07/18 03:49:00;;;;;;;0.10;0.10;;;;;;;;;;5047683;28;20095;-86
2023/07/18 03:51:26;;;;;;;0.10;0.10;;;;;;;16.70;nan;100858.78;5045494;28;20068;-84
2023/07/18 03:53:51;;;;;;;0.10;0.10;;;;;;;16.68;nan;100893.66;5044718;28;20038;-86
2023/07/18 03:56:20;;;;;;;0.10;0.10;;;;;;;;;;5050795;28;20104;-84
2023/07/18 03:58:45;;;;;;;0.10;0.10;;;;;;;;;;5050324;28;20279;-84
2023/07/18 04:01:10;;;;;;;0.10;0.10;;;;;;;;;;5044938;28;20067;-86
2023/07/18 04:03:39;;;;;;;0.10;0.10;;;;;;;16.88;nan;100877.16;5051845;28;20230;-85
2023/07/18 04:06:05;;;;;;;0.10;0.10;;;;;;;16.87;nan;100817.53;5052901;28;20171;-87
2023/07/18 04:08:31;;;;;;;0.10;0.10;;;;;;;;;;5053545;28;20056;-84
2023/07/18 04:10:57;;;;;;;0.10;0.10;;;;;;;;;;5050030;28;20396;-85
2023/07/18 04:13:22;;;;;;;0.10;0.10;;;;;;;16.84;nan;100871.31;5054928;28;20053;-85
2023/07/18 04:15:47;;;;;;;0.10;0.10;;;;;;;;;;5048458;28;20033;-86
2023/07/18 04:18:13;;;;;;;0.10;0.10;;;;;;;16.79;nan;100953.84;5045919;28;20033;-86
2023/07/18 04:20:38;;;;;;;0.10;0.10;;;;;;;;;;5048370;28;20104;-85
2023/07/18 04:23:03;;;;;;;0.10;0.10;;;;;;;16.74;nan;100892.94;5058249;28;20048;-85
2023/07/18 04:25:35;;;;;;;0.10;0.10;;;;;;;16.74;nan;100863.56;5050307;28;20033;-85
2023/07/18 04:28:00;;;;;;;0.10;0.10;;;;;;;;;;5041603;28;20549;-84
2023/07/18 04:30:25;;;;;;;0.10;0.10;;;;;;;;;;5051224;28;20064;-86
2023/07/18 04:32:50;;;;;;;0.10;0.10;;;;;;;;;;5050262;28;20087;-86
2023/07/18 04:35:16;;;;;;;0.10;0.10;;;;;;;16.71;nan;100865.78;5057486;28;20279;-86
2023/07/18 04:37:43;;;;;;;0.10;0.10;;;;;;;;;;5049154;28;20510;-86
2023/07/18 04:40:08;;;;;;;0.10;0.10;;;;;;;16.67;nan;100992.66;5048446;28;20033;-84
2023/07/18 04:42:34;;;;;;;0.10;0.10;;;;;;;;;;5049713;28;20164;-84
2023/07/18 04:45:00;;;;;;;0.10;0.10;;;;;;;16.64;nan;100854.19;5042908;28;20093;-85
2023/07/18 04:47:25;;;;;;;0.10;0.10;;;;;;;-145.28;100.00;148776.72;5052919;28;20021;-85
2023/07/18 04:49:50;;;;;;;0.10;0.10;;;;;;;;;;5044501;28;20056;-84
2023/07/18 04:52:15;;;;;;;0.10;0.10;;;;;;;;;;5056681;28;20037;-85
2023/07/18 04:54:41;;;;;;;0.10;0.10;;;;;;;16.61;nan;100866.03;5058340;28;20490;-85
2023/07/18 04:57:06;;;;;;;0.10;0.10;;;;;;;;;;5058155;28;20033;-85
2023/07/18 04:59:31;;;;;;;0.10;0.10;;;;;;;;;;5051835;28;20039;-84
2023/07/18 05:01:57;;;;;;;0.10;0.10;;;;;;;16.75;nan;100989.91;5043582;28;20029;-83
2023/07/18 05:04:22;;;;;;;0.10;0.10;;;;;;;;;;5043784;28;20037;-84
2023/07/18 05:06:48;;;;;;;0.10;0.10;;;;;;;;;;5041861;28;20036;-83
2023/07/18 05:09:13;;;;;;;0.10;0.10;;;;;;;;;;5054095;28;20083;-84
2023/07/18 05:11:39;;;;;;;0.10;0.10;;;;;;;;;;5054926;28;20040;-84
2023/07/18 05:14:04;;;;;;;0.10;0.10;;;;;;;;;;5048617;28;20037;-84
2023/07/18 05:16:30;;;;;;;0.10;0.10;;;;;;;;;;5044912;28;20279;-84
2023/07/18 05:19:01;;;;;;;0.10;0.10;;;;;;;;;;5048154;28;20052;-83
2023/07/18 05:21:52;;;;;;;0.10;0.10;;;;;;;17.54;nan;100866.41;5040230;28;20422;-84
2023/07/18 05:24:17;;;;;;;0.10;0.10;;;;;;;;;;5037218;28;20034;-83
2023/07/18 05:26:43;;;;;;;0.10;0.10;;;;;;;17.87;nan;101048.72;5051619;28;20033;-84
2023/07/18 05:29:09;;;;;;;0.10;0.10;;;;;;;17.84;nan;101043.75;5046602;28;20421;-84
2023/07/18 05:31:37;;;;;;;0.10;0.10;;;;;;;17.94;nan;101044.28;5043815;28;20067;-83
2023/07/18 05:34:06;;;;;;;0.10;0.10;;;;;;;18.15;nan;101042.66;5054612;28;20042;-84
2023/07/18 05:36:37;;;;;;;0.10;0.10;;;;;;;18.24;nan;101041.53;5033634;28;20037;-84
2023/07/18 05:39:07;;;;;;;;;;;;;;;18.28;nan;101042.78;5036285;28;20072;-84
2023/07/18 05:41:35;;;;;;;0.10;0.10;;;;;;;18.34;nan;101028.66;5058059;28;19999;-84
2023/07/18 05:44:13;;;;;;;0.10;0.10;;;;;;;18.38;nan;101029.94;5041129;28;20072;-84
2023/07/18 05:46:40;;;;;;;0.10;0.10;;;;;;;18.49;nan;101028.59;5035312;28;20406;-84
2023/07/18 05:49:14;;;;;;;0.10;0.10;;;;;;;18.87;nan;101020.31;5028800;28;20074;-85
2023/07/18 05:51:54;;;;;;;0.10;0.10;;;;;;;19.31;nan;101019.19;5030947;28;20440;-84
2023/07/18 05:54:20;;;;;;;0.10;0.10;;;;;;;19.89;nan;101029.59;5045703;28;20033;-84
2023/07/18 05:56:58;;;;;;;0.10;0.10;;;;;;;20.45;nan;101025.78;5047378;28;20034;-84
2023/07/18 05:59:25;;;;;;;0.10;0.10;;;;;;;20.90;nan;101026.03;5046789;28;20074;-85
2023/07/18 06:01:56;;;;;;;0.10;0.10;;;;;;;21.40;nan;101024.56;5044644;28;20033;-85
2023/07/18 06:04:21;;;;;;;0.10;0.10;;;;;;;21.86;nan;101028.13;5045102;28;20056;-85
2023/07/18 06:06:50;;;;;;;0.10;0.10;;;;;;;22.18;nan;101036.25;5054594;28;20033;-85
2023/07/18 06:09:16;;;;;;;0.10;0.10;;;;;;;22.54;nan;101018.63;5027541;28;20403;-86
2023/07/18 06:11:42;;;;;;;0.10;0.10;;;;;;;22.62;nan;101023.72;5043446;28;20037;-85
2023/07/18 06:14:10;;;;;;;0.10;0.10;;;;;;;22.67;nan;101018.53;5043971;28;20044;-85
2023/07/18 06:16:45;;;;;;;0.00;0.00;;;;;;;22.89;nan;101016.25;5040363;28;20040;-86
2023/07/18 06:19:18;;;;;;;0.00;0.00;;;;;;;22.93;nan;101014.78;5028899;28;20052;-86
2023/07/18 06:21:44;;;;;;;0.00;0.00;;;;;;;23.12;nan;101021.06;5041725;28;20141;-86
2023/07/18 06:24:14;;;;;;;0.00;0.00;;;;;;;23.46;nan;101018.84;5034278;28;20206;-86
2023/07/18 06:26:40;;;;;;;0.00;0.00;;;;;;;23.54;nan;101019.34;5041492;28;20037;-86
2023/07/18 06:29:14;;;;;;;0.00;0.00;;;;;;;23.93;nan;101019.94;5040270;28;20149;-86
2023/07/18 06:31:49;;;;;;;0.00;0.00;;;;;;;24.14;nan;101015.06;5038411;28;20033;-87
2023/07/18 06:34:24;;;;;;;0.00;0.00;;;;;;;24.14;nan;101013.19;5045188;28;20413;-85
2023/07/18 06:36:50;;;;;;;0.00;0.00;;;;;;;24.12;nan;101003.66;5039918;28;20746;-85
2023/07/18 06:39:21;;;;;;;0.00;0.00;;;;;;;24.04;nan;101006.69;5050899;28;20105;-86
2023/07/18 06:41:56;;;;;;;0.00;0.00;;;;;;;24.34;nan;101006.69;5057570;28;20083;-87
2023/07/18 06:44:22;;;;;;;0.00;0.00;;;;;;;24.50;nan;101008.75;5040437;28;20052;-85
2023/07/18 06:46:53;;;;;;;0.00;0.00;;;;;;;24.33;nan;101000.44;5047348;28;20037;-86
2023/07/18 06:49:30;;;;;;;;;;;;;;;24.51;nan;101002.28;5040459;28;20053;-86
2023/07/18 06:51:56;;;;;;;0.00;0.00;;;;;;;25.01;nan;100995.59;5050921;28;19980;-86
2023/07/18 06:54:30;;;;;;;0.00;0.00;;;;;;;25.35;nan;100993.13;5025676;28;20228;-87
2023/07/18 06:57:02;;;;;;;0.00;0.00;;;;;;;25.80;nan;100990.50;5048885;28;20124;-86
2023/07/18 06:59:27;;;;;;;0.00;0.00;;;;;;;26.15;nan;100988.72;5050039;28;20098;-86
2023/07/18 07:01:58;;;;;;;0.00;0.00;;;;;;;26.50;nan;100985.78;5032413;28;20038;-87
2023/07/18 07:04:27;;;;;;;0.00;0.00;;;;;;;27.06;nan;100983.94;5032521;28;20053;-86
2023/07/18 07:09:39;;;;;;;0.00;0.00;;;;;;;27.81;nan;100978.09;5048070;28;20033;-85
2023/07/18 07:12:05;;;;;;;0.00;0.00;;;;;;;28.09;nan;100979.75;5040584;28;20037;-86
2023/07/18 07:14:33;;;;;;;0.00;0.00;;;;;;;27.85;nan;100974.63;5043478;28;20068;-86
2023/07/18 07:17:02;;;;;;;0.00;0.00;;;;;;;28.04;nan;100972.38;5046578;28;20457;-86
2023/07/18 07:19:28;;;;;;;0.00;0.00;;;;;;;27.91;nan;100968.19;5038772;28;20056;-86
2023/07/18 07:21:59;;;;;;;0.00;0.00;;;;;;;28.14;nan;100967.03;5036765;28;20059;-87
2023/07/18 07:24:25;;;;;;;0.00;0.00;;;;;;;28.55;nan;100967.38;5019076;28;20120;-86
2023/07/18 07:26:59;;;;;;;0.00;0.00;;;;;;;28.74;nan;100962.34;5038575;28;20100;-86
2023/07/18 07:29:28;;;;;;;0.00;0.00;;;;;;;28.38;nan;100956.59;5048077;28;20477;-86
2023/07/18 07:32:00;;;;;;;0.00;0.00;;;;;;;28.30;nan;100964.44;5047035;28;20041;-87
2023/07/18 07:34:29;;;;;;;0.00;0.00;;;;;;;28.85;nan;100957.78;5048439;28;20041;-86
2023/07/18 07:36:58;;;;;;;0.00;0.00;;;;;;;29.22;nan;100956.91;5038483;28;20407;-87
2023/07/18 07:39:32;;;;;;;0.00;0.00;;;;;;;29.75;nan;100946.75;5038986;28;20037;-87
2023/07/18 07:41:57;;;;;;;0.00;0.00;;;;;;;30.12;nan;100951.16;5037799;28;20037;-87
2023/07/18 07:44:23;;;;;;;0.00;0.00;;;;;;;29.94;nan;100943.50;5035291;28;20194;-86
2023/07/18 07:46:52;;;;;;;0.00;0.00;;;;;;;29.94;nan;100936.16;5047134;28;20486;-87
2023/07/18 07:49:18;;;;;;;0.00;0.00;;;;;;;30.05;nan;100939.69;5038088;28;20041;-87
2023/07/18 07:51:45;;;;;;;0.00;0.00;;;;;;;30.13;nan;100939.16;5046782;28;20038;-88
2023/07/18 07:54:17;;;;;;;0.00;0.00;;;;;;;30.12;nan;100928.50;5032359;28;20054;-87
2023/07/18 07:56:43;;;;;;;0.00;0.00;;;;;;;30.36;nan;100921.44;5038214;28;20041;-85
2023/07/18 07:59:09;;;;;;;0.00;0.00;;;;;;;30.58;nan;100915.69;5039503;28;20502;-86
2023/07/18 08:01:38;;;;;;;0.00;0.00;;;;;;;30.67;nan;100913.19;5045224;28;20122;-86
2023/07/18 08:04:09;;;;;;;0.00;0.00;;;;;;;31.20;nan;100915.47;5045485;28;20061;-88
2023/07/18 08:06:40;;;;;;;;;;;;;;;31.80;nan;100920.88;5037085;28;20403;-86
2023/07/18 08:09:06;;;;;;;0.00;0.00;;;;;;;32.27;nan;100917.50;5034933;28;19917;-86
2023/07/18 08:11:32;;;;;;;0.00;0.00;;;;;;;32.24;nan;100914.56;5038547;28;20414;-86
2023/07/18 08:14:01;;;;;;;0.00;0.00;;;;;;;32.04;nan;100915.56;5035361;28;20045;-86
2023/07/18 08:16:35;;;;;;;0.00;0.00;;;;;;;32.38;nan;100907.31;5037325;28;20488;-86
2023/07/18 08:19:03;;;;;;;0.00;0.00;;;;;;;32.61;nan;100913.94;5051308;28;20107;-86
2023/07/18 08:21:29;;;;;;;0.00;0.00;;;;;;;32.55;nan;100906.88;5032801;28;20044;-86
2023/07/18 08:23:56;;;;;;;0.00;0.00;;;;;;;32.22;nan;100894.88;5028759;28;20037;-85
2023/07/18 08:26:24;;;;;;;0.00;0.00;;;;;;;32.60;nan;100893.13;5030835;28;20342;-85
2023/07/18 08:28:50;;;;;;;0.00;0.00;;;;;;;32.19;nan;100904.47;5037314;28;20076;-85
2023/07/18 08:31:16;;;;;;;0.00;0.00;;;;;;;32.14;nan;100901.78;5056844;28;20290;-86
2023/07/18 08:33:43;;;;;;;0.00;0.00;;;;;;;32.77;nan;100889.91;5056245;28;20047;-84
2023/07/18 08:36:08;;;;;;;0.00;0.00;;;;;;;33.04;nan;100892.09;5039494;28;20045;-85
2023/07/18 08:38:37;;;;;;;0.00;0.00;;;;;;;33.15;nan;100887.28;5054884;28;20047;-85
2023/07/18 08:41:04;;;;;;;0.00;0.00;;;;;;;33.58;nan;100874.34;5039148;28;20342;-85
2023/07/18 08:43:33;;;;;;;0.00;0.00;;;;;;;33.96;nan;100876.22;5045045;28;20048;-85
2023/07/18 08:45:59;;;;;;;0.00;0.00;;;;;;;34.69;nan;100877.38;5053058;28;20036;-86
2023/07/18 08:48:25;;;;;;;0.00;0.00;;;;;;;35.36;nan;100874.03;5050961;28;20052;-84
2023/07/18 08:51:01;;;;;;;0.00;0.00;;;;;;;35.30;nan;100865.09;5046945;28;20053;-86
2023/07/18 08:53:27;;;;;;;0.00;0.00;;;;;;;35.39;nan;100856.91;5031988;28;20116;-85
2023/07/18 08:55:54;;;;;;;0.00;0.00;;;;;;;35.46;nan;100857.28;5028043;28;20046;-86
2023/07/18 08:58:22;;;;;;;0.00;0.00;;;;;;;35.79;nan;100857.06;5035520;28;20033;-85
2023/07/18 09:00:50;;;;;;;0.00;0.00;;;;;;;35.76;nan;100851.41;5035039;28;20037;-86
2023/07/18 09:03:19;;;;;;;0.00;0.00;;;;;;;35.37;nan;100850.09;5031621;28;20038;-86
2023/07/18 09:05:48;;;;;;;0.00;0.00;;;;;;;35.57;nan;100835.06;5033440;28;20296;-85
2023/07/18 09:08:15;;;;;;;0.00;0.00;;;;;;;35.98;nan;100836.78;5042268;28;20044;-86
2023/07/18 09:10:45;;;;;;;0.00;0.00;;;;;;;34.88;nan;100819.56;5044520;28;20040;-82
2023/07/18 09:13:12;;;;;;;0.00;0.00;;;;;;;34.27;nan;100821.59;5043330;28;20083;-83
2023/07/18 09:15:37;;;;;;;0.00;0.00;;;;;;;33.47;nan;100814.47;5040574;28;20040;-85
2023/07/18 09:18:08;;;;;;;0.00;0.00;;;;;;;34.57;nan;100811.13;5044392;28;20038;-85
2023/07/18 09:20:34;;;;;;;0.00;0.00;;;;;;;35.63;nan;100809.88;5043260;28;20402;-85
2023/07/18 09:23:05;;;;;;;0.00;0.00;;;;;;;36.44;nan;100806.06;5036022;28;20037;-85
2023/07/18 09:25:38;;;;;;;0.00;0.00;;;;;;;36.95;nan;100812.84;5033518;28;20053;-85
2023/07/18 09:28:10;;;;;;;0.00;0.00;;;;;;;37.03;nan;100807.66;5043567;28;20128;-85
2023/07/18 09:30:37;;;;;;;0.00;0.00;;;;;;;36.68;nan;100793.81;5040745;28;20029;-86
2023/07/18 09:33:06;;;;;;;0.00;0.00;;;;;;;36.39;nan;100792.44;5045354;28;20045;-85
2023/07/18 09:35:39;;;;;;;0.00;0.00;;;;;;;35.75;nan;100787.28;5048270;28;20443;-86
2023/07/18 09:38:15;;;;;;;0.00;0.00;;;;;;;36.10;nan;100782.78;5043670;28;20037;-85
2023/07/18 09:40:41;;;;;;;0.00;0.00;;;;;;;36.07;nan;100790.84;5044928;28;20548;-86
2023/07/18 09:43:09;;;;;;;0.00;0.00;;;;;;;36.70;nan;100792.38;5037245;28;20041;-85
2023/07/18 09:45:36;;;;;;;0.00;0.00;;;;;;;37.13;nan;100804.59;5045830;28;20056;-86
2023/07/18 09:48:03;;;;;;;0.00;0.00;;;;;;;37.33;nan;100803.94;5035609;28;20110;-85
2023/07/18 09:50:36;;;;;;;0.00;0.00;;;;;;;36.80;nan;100823.50;5021568;28;20138;-84
2023/07/18 09:53:10;;;;;;;0.00;0.00;;;;;;;36.93;nan;100826.13;5044794;28;20052;-84
2023/07/18 09:55:38;;;;;;;0.00;0.00;;;;;;;37.64;nan;100818.69;5031743;28;20037;-84
2023/07/18 09:58:06;;;;;;;0.00;0.00;;;;;;;36.99;nan;100827.59;5045624;28;20413;-84
2023/07/18 10:00:38;;;;;;;0.00;0.00;;;;;;;37.25;nan;100835.09;5037011;28;20045;-84
2023/07/18 10:03:04;;;;;;;0.00;0.00;;;;;;;37.09;nan;100828.44;5026483;28;20037;-84
2023/07/18 10:05:31;;;;;;;0.00;0.00;;;;;;;36.84;nan;100841.03;5034395;28;20056;-84
2023/07/18 10:07:57;;;;;;;0.00;0.00;;;;;;;36.61;nan;100832.88;5055674;28;20037;-83
2023/07/18 10:10:26;;;;;;;0.00;0.00;;;;;;;36.35;nan;100824.50;5041837;28;20506;-84
2023/07/18 10:12:54;;;;;;;0.00;0.00;;;;;;;35.95;nan;100832.72;5035937;28;20048;-84
2023/07/18 10:15:23;;;;;;;0.00;0.00;;;;;;;35.61;nan;100830.56;5039669;28;20056;-84
2023/07/18 10:17:49;;;;;;;0.00;0.00;;;;;;;33.25;nan;100831.50;5040461;28;20114;-84
2023/07/18 10:20:25;;;;;;;0.00;0.00;;;;;;;33.08;nan;100827.34;5036843;28;20057;-83
2023/07/18 10:22:59;;;;;;;0.00;0.00;;;;;;;33.10;nan;100822.41;5030554;28;20409;-84
2023/07/18 10:25:29;;;;;;;0.00;0.00;;;;;;;33.13;nan;100818.25;5056591;28;20494;-85
2023/07/18 10:27:57;;;;;;;0.00;0.00;;;;;;;33.95;nan;100817.78;5050833;28;20044;-86
2023/07/18 10:30:23;;;;;;;0.00;0.00;;;;;;;33.79;nan;100813.69;5043469;28;20041;-85
2023/07/18 10:32:55;;;;;;;0.00;0.00;;;;;;;33.46;nan;100791.72;5043893;28;20026;-85
2023/07/18 10:35:27;;;;;;;0.00;0.00;;;;;;;33.32;nan;100766.16;5035791;28;20410;-85
2023/07/18 10:37:53;;;;;;;0.00;0.00;;;;;;;32.84;nan;100722.50;5049719;28;20037;-85
2023/07/18 10:40:37;;;;;;;0.00;0.00;;;;;;;32.19;nan;100712.94;5043467;28;20605;-84
2023/07/18 10:43:08;;;;;;;0.00;0.00;;;;;;;31.80;nan;100708.44;5031684;28;20320;-85
2023/07/18 10:45:44;;;;;;;0.00;0.00;;;;;;;31.40;nan;100704.19;5042911;28;20458;-83
2023/07/18 10:48:19;;;;;;;0.00;0.00;;;;;;;31.26;nan;100695.78;5035051;28;20309;-85
2023/07/18 10:50:49;;;;;;;0.00;0.00;;;;;;;31.46;nan;100700.28;5043854;28;20057;-85
2023/07/18 10:53:20;;;;;;;0.00;0.00;;;;;;;31.89;nan;100703.97;5051676;28;20053;-83
2023/07/18 10:55:46;;;;;;;;;;;;;;;33.07;nan;100702.44;5053651;28;20033;-84
2023/07/18 10:58:20;;;;;;;0.00;0.00;;;;;;;34.76;nan;100704.72;5034942;28;19928;-84
2023/07/18 11:00:47;;;;;;;0.00;0.00;;;;;;;36.17;nan;100699.72;5034660;28;20490;-84
2023/07/18 11:03:27;;;;;;;0.00;0.00;;;;;;;37.92;nan;100703.16;5041731;28;20443;-85
2023/07/18 11:05:53;;;;;;;0.00;0.00;;;;;;;39.09;nan;100711.63;5042208;28;20166;-85
2023/07/18 11:08:26;;;;;;;0.00;0.00;;;;;;;40.20;nan;100712.59;5043959;28;20076;-85
2023/07/18 11:10:57;;;;;;;0.00;0.00;;;;;;;40.44;nan;100709.00;5033041;28;20538;-86
2023/07/18 11:13:27;;;;;;;0.00;0.00;;;;;;;40.74;nan;100708.72;5046961;28;20029;-83
2023/07/18 11:15:55;;;;;;;;;;;;;;;40.45;nan;100710.63;5035314;28;20058;-83
2023/07/18 11:18:20;;;;;;;0.00;0.00;;;;;;;39.34;nan;100709.75;5040015;28;19935;-83
2023/07/18 11:20:46;;;;;;;0.00;0.00;;;;;;;39.53;nan;100723.06;5042245;28;20046;-85
2023/07/18 11:23:11;;;;;;;0.00;0.00;;;;;;;39.26;nan;100733.59;5041323;28;20275;-84
2023/07/18 11:25:36;;;;;;;0.00;0.00;;;;;;;39.37;nan;100722.91;5031677;28;20116;-85
2023/07/18 11:28:03;;;;;;;0.00;0.00;;;;;;;39.30;nan;100723.44;5023199;28;20094;-84
2023/07/18 11:30:31;;;;;;;0.00;0.00;;;;;;;39.67;nan;100731.06;5047150;28;20260;-85
2023/07/18 11:32:56;;;;;;;0.00;0.00;;;;;;;40.07;nan;100722.91;5046032;28;20041;-86
2023/07/18 11:35:23;;;;;;;0.00;0.00;;;;;;;40.03;nan;100721.97;5051974;28;20056;-85
2023/07/18 11:37:53;;;;;;;0.00;0.00;;;;;;;39.56;nan;100711.31;5039732;28;20521;-84
2023/07/18 11:40:21;;;;;;;0.00;0.00;;;;;;;38.91;nan;100705.47;5044930;28;20124;-85
2023/07/18 11:42:51;;;;;;;0.00;0.00;;;;;;;38.05;nan;100704.91;5040595;28;20463;-85
2023/07/18 11:45:20;;;;;;;0.00;0.00;;;;;;;38.28;nan;100704.59;5043675;28;20717;-84
2023/07/18 11:47:48;;;;;;;0.00;0.00;;;;;;;38.39;nan;100695.56;5039899;28;20441;-84
2023/07/18 11:50:14;;;;;;;0.00;0.00;;;;;;;38.00;nan;100683.81;5041405;28;20120;-84
2023/07/18 11:52:41;;;;;;;0.00;0.00;;;;;;;37.43;nan;100675.91;5051899;28;20053;-84
2023/07/18 11:55:06;;;;;;;0.00;0.00;;;;;;;37.60;nan;100673.09;5038863;28;20529;-86
2023/07/18 11:57:32;;;;;;;0.00;0.00;;;;;;;38.79;nan;100661.16;5054761;28;20025;-85
2023/07/18 11:59:58;;;;;;;0.00;0.00;;;;;;;39.20;nan;100660.25;5038343;28;20539;-84
2023/07/18 12:02:23;;;;;;;0.00;0.00;;;;;;;38.37;nan;100656.44;5046454;28;20033;-84
2023/07/18 12:04:49;;;;;;;0.00;0.00;;;;;;;37.84;nan;100657.91;5047303;28;20039;-85
2023/07/18 12:07:14;;;;;;;0.00;0.00;;;;;;;38.45;nan;100646.47;5054323;28;20497;-85
2023/07/18 12:09:39;;;;;;;0.00;0.00;;;;;;;39.56;nan;100652.38;5057438;28;20288;-85
2023/07/18 12:12:05;;;;;;;0.00;0.00;;;;;;;40.16;nan;100638.84;5048111;28;20048;-84
2023/07/18 12:14:31;;;;;;;0.00;0.00;;;;;;;40.77;nan;100627.59;5050704;28;20548;-84
2023/07/18 12:16:57;;;;;;;0.00;0.00;;;;;;;39.95;nan;100620.41;5056418;28;20037;-84
2023/07/18 12:19:23;;;;;;;0.00;0.00;;;;;;;39.26;nan;100619.34;5055118;28;20116;-84
2023/07/18 12:21:49;;;;;;;0.00;0.00;;;;;;;39.03;nan;100602.38;5062877;28;20047;-85
2023/07/18 12:24:14;;;;;;;0.00;0.00;;;;;;;38.56;nan;100589.66;5053086;28;20041;-85
2023/07/18 12:26:40;;;;;;;0.00;0.00;;;;;;;37.84;nan;100580.59;5059394;28;20456;-84
2023/07/18 12:29:05;;;;;;;0.00;0.00;;;;;;;37.78;nan;100580.00;5050448;28;20034;-85